FWKI/LLW METAR and TAF weather

Enter ICAO airport designator
Station Type Date Time Source
FWKI METAR 2020/02/19 11:00 UTC NOAA

FWKI 191100Z 12004KT 9999 FEW027CB SCT028 27/18 Q1018 NOSIG


Station Type Date Time Source
FWKI Decoded METAR 2020/02/19 11:00 UTC NOAA

Lilongwe International Airport, Malawi (FWKI) 13-47S 033-46E 1229M
Feb 19, 2020 - 06:00 AM EST / 2020.02.19 1100 UTC
Wind: from the ESE (120 degrees) at 5 MPH (4 KT):0
Visibility: greater than 7 mile(s):0
Sky conditions: partly cloudy
Weather: Cumulonimbus clouds observed
Temperature: 80 F (27 C)
Dew Point: 64 F (18 C)
Relative Humidity: 57%
Pressure (altimeter): 30.06 in. Hg (1018 hPa)
ob: FWKI 191100Z 12004KT 9999 FEW027CB SCT028 27/18 Q1018 NOSIG
cycle: 11

Station Type Date Time Source
FWKI TAF 2020/02/19 12:39 UTC NOAA

TAF TAF FWKI 191020Z 1912/2018 07006KT 9999 FEW026CB SCT027
BECMG 1913/1915 07005KT 9999 TS FEW028CB SCT033
FM191700 VRB02KT 9999 FEW025 PROB30
TEMPO 1923/2004 00000KT 0500 FG FEW004
BECMG 2006/2008 15005KT 9999 FEW025

Example: see airport list